Time;durP1;ratioP1;P1;durP2;ratioP2;P2;SDS_P1;SDS_P2;PMS_P1;PMS_P2;Temp;Humidity;BMP_temperature;BMP_pressure;BME280_temperature;BME280_humidity;BME280_pressure;Samples;Min_cycle;Max_cycle;Signal;HPM_P1;HPM_P2
2024/01/24 00:02:17;;;;;;;0.80;0.80;;;11.30;99.90;;;;;;5156682;27;20039;-68
2024/01/24 00:04:43;;;;;;;0.70;0.70;;;11.30;99.90;;;;;;5156639;27;20493;-68
2024/01/24 00:07:08;;;;;;;0.80;0.80;;;11.80;99.90;;;;;;5156651;27;20046;-68
2024/01/24 00:09:34;;;;;;;0.90;0.90;;;11.40;99.90;;;;;;5156553;27;20045;-68
2024/01/24 00:12:00;;;;;;;0.80;0.80;;;11.40;99.90;;;;;;5156496;27;20090;-68
2024/01/24 00:14:26;;;;;;;0.70;0.70;;;11.40;99.90;;;;;;5156277;27;20055;-68
2024/01/24 00:16:51;;;;;;;0.80;0.80;;;11.40;99.90;;;;;;5156401;27;20054;-68
2024/01/24 00:19:17;;;;;;;0.70;0.70;;;11.40;99.90;;;;;;5156452;27;20043;-69
2024/01/24 00:21:43;;;;;;;0.75;0.75;;;11.40;99.90;;;;;;5155922;27;20042;-69
2024/01/24 00:24:08;;;;;;;0.70;0.70;;;11.50;99.90;;;;;;5156168;27;20054;-68
2024/01/24 00:26:40;;;;;;;0.70;0.70;;;11.50;99.90;;;;;;5156258;27;20042;-68
2024/01/24 00:29:05;;;;;;;0.73;0.73;;;11.50;99.90;;;;;;5156645;27;20038;-68
2024/01/24 00:31:31;;;;;;;0.70;0.70;;;11.60;99.90;;;;;;5156464;27;20497;-68
2024/01/24 00:33:57;;;;;;;0.70;0.70;;;11.50;99.90;;;;;;5156350;27;20082;-68
2024/01/24 00:36:23;;;;;;;0.93;0.90;;;11.60;99.90;;;;;;5156120;27;20423;-68
2024/01/24 00:38:49;;;;;;;0.70;0.70;;;11.60;99.90;;;;;;5156123;27;20039;-68
2024/01/24 00:41:15;;;;;;;0.80;0.80;;;11.60;99.90;;;;;;5155940;27;20579;-69
2024/01/24 00:43:41;;;;;;;0.80;0.80;;;11.60;99.90;;;;;;5156590;27;20434;-68
2024/01/24 00:46:07;;;;;;;0.70;0.70;;;11.60;99.90;;;;;;5156248;27;20046;-68
2024/01/24 00:48:33;;;;;;;0.77;0.77;;;11.70;99.90;;;;;;5156068;27;20094;-68
2024/01/24 00:50:58;;;;;;;0.70;0.70;;;11.70;99.90;;;;;;5155692;27;20050;-68
2024/01/24 00:53:26;;;;;;;0.80;0.80;;;11.70;99.90;;;;;;5156434;27;20474;-68
2024/01/24 00:55:52;;;;;;;0.70;0.70;;;11.70;99.90;;;;;;5155710;27;20488;-68
2024/01/24 00:58:19;;;;;;;0.70;0.70;;;12.00;99.90;;;;;;5155748;27;20129;-69
2024/01/24 01:00:44;;;;;;;;;;;11.70;99.90;;;;;;5155804;27;20557;-68
2024/01/24 01:03:10;;;;;;;0.70;0.70;;;11.70;99.90;;;;;;5137408;27;19922;-69
2024/01/24 01:05:36;;;;;;;0.80;0.80;;;11.80;99.90;;;;;;5155408;27;20046;-68
2024/01/24 01:08:02;;;;;;;0.80;0.80;;;12.00;99.90;;;;;;5155571;27;20058;-68
2024/01/24 01:10:28;;;;;;;0.70;0.70;;;11.90;99.90;;;;;;5155452;27;20046;-68
2024/01/24 01:12:54;;;;;;;0.70;0.70;;;11.90;99.90;;;;;;5155569;27;20375;-68
2024/01/24 01:15:19;;;;;;;0.70;0.70;;;11.90;99.90;;;;;;5155536;27;20067;-68
2024/01/24 01:17:45;;;;;;;0.70;0.70;;;11.90;99.90;;;;;;5155251;27;20138;-68
2024/01/24 01:20:11;;;;;;;0.70;0.70;;;11.90;99.90;;;;;;5155568;27;20043;-68
2024/01/24 01:22:37;;;;;;;0.70;0.70;;;11.90;99.90;;;;;;5155315;27;20042;-68
2024/01/24 01:25:03;;;;;;;0.70;0.70;;;11.80;99.90;;;;;;5155228;27;20126;-68
2024/01/24 01:27:29;;;;;;;0.70;0.70;;;11.80;99.90;;;;;;5155195;27;20476;-68
2024/01/24 01:29:54;;;;;;;0.70;0.70;;;11.80;99.90;;;;;;5155362;27;20490;-68
2024/01/24 01:32:20;;;;;;;0.73;0.73;;;11.70;99.90;;;;;;5155344;27;20042;-69
2024/01/24 01:34:46;;;;;;;0.70;0.70;;;11.70;99.90;;;;;;5157579;27;20074;-68
2024/01/24 01:37:12;;;;;;;0.70;0.70;;;11.70;99.90;;;;;;5159361;27;20367;-68
2024/01/24 01:39:37;;;;;;;0.70;0.70;;;11.70;99.90;;;;;;5159374;27;20057;-69
2024/01/24 01:42:03;;;;;;;0.70;0.70;;;11.70;99.90;;;;;;5159522;27;20390;-68
2024/01/24 01:44:29;;;;;;;0.73;0.73;;;11.80;99.90;;;;;;5159445;27;20038;-68
2024/01/24 01:46:55;;;;;;;0.60;0.60;;;11.80;99.90;;;;;;5159433;27;20043;-68
2024/01/24 01:49:21;;;;;;;0.70;0.70;;;11.80;99.90;;;;;;5159450;27;20098;-68
2024/01/24 01:51:49;;;;;;;0.70;0.70;;;11.90;99.90;;;;;;5159499;27;20046;-68
2024/01/24 01:54:16;;;;;;;0.60;0.60;;;11.90;99.90;;;;;;5159223;27;20094;-68
2024/01/24 01:56:43;;;;;;;0.70;0.70;;;12.00;99.90;;;;;;5159243;27;20118;-68
2024/01/24 01:59:09;;;;;;;0.70;0.70;;;12.00;99.90;;;;;;5159129;27;20039;-68
2024/01/24 02:01:35;;;;;;;0.70;0.70;;;12.00;99.90;;;;;;5159027;27;20141;-68
2024/01/24 02:04:02;;;;;;;0.70;0.70;;;12.00;99.90;;;;;;5158756;27;20053;-68
2024/01/24 02:06:28;;;;;;;0.80;0.80;;;12.10;99.90;;;;;;5159080;27;20042;-68
2024/01/24 02:08:54;;;;;;;0.70;0.70;;;12.00;99.90;;;;;;5158883;27;20291;-68
2024/01/24 02:11:20;;;;;;;0.70;0.70;;;12.10;99.90;;;;;;5159320;27;20035;-68
2024/01/24 02:13:46;;;;;;;0.60;0.60;;;12.10;99.90;;;;;;5158899;27;20130;-69
2024/01/24 02:16:13;;;;;;;0.70;0.70;;;12.00;99.90;;;;;;5158627;27;20062;-68
2024/01/24 02:18:41;;;;;;;0.70;0.70;;;12.00;99.90;;;;;;5158733;27;20051;-68
2024/01/24 02:21:07;;;;;;;0.70;0.70;;;12.00;99.90;;;;;;5158679;27;20043;-68
2024/01/24 02:23:33;;;;;;;0.70;0.70;;;12.00;99.90;;;;;;5158488;27;20085;-68
2024/01/24 02:25:58;;;;;;;0.70;0.70;;;12.00;99.90;;;;;;5158405;27;20312;-68
2024/01/24 02:28:24;;;;;;;0.70;0.70;;;12.00;99.90;;;;;;5140393;27;20043;-68
2024/01/24 02:30:50;;;;;;;0.68;0.68;;;12.00;99.90;;;;;;5158560;27;20082;-68
2024/01/24 02:33:15;;;;;;;0.70;0.70;;;11.90;99.90;;;;;;5158608;27;20452;-68
2024/01/24 02:35:41;;;;;;;0.70;0.70;;;11.90;99.90;;;;;;5158446;27;20089;-68
2024/01/24 02:38:07;;;;;;;0.70;0.70;;;12.00;99.90;;;;;;5158410;27;20043;-69
2024/01/24 02:40:32;;;;;;;0.70;0.70;;;12.10;99.90;;;;;;5158343;27;20050;-68
2024/01/24 02:42:58;;;;;;;0.73;0.73;;;12.00;99.90;;;;;;5158284;27;20038;-68
2024/01/24 02:45:24;;;;;;;0.70;0.70;;;11.90;99.90;;;;;;5158283;27;20394;-68
2024/01/24 02:47:49;;;;;;;0.70;0.70;;;11.90;99.90;;;;;;5158124;27;20046;-68
2024/01/24 02:50:16;;;;;;;0.77;0.77;;;11.80;99.90;;;;;;5158055;27;20050;-68
2024/01/24 02:52:41;;;;;;;0.70;0.70;;;11.80;99.90;;;;;;5158051;27;20050;-68
2024/01/24 02:55:07;;;;;;;0.70;0.70;;;11.70;99.90;;;;;;5158038;27;20099;-68
2024/01/24 02:57:33;;;;;;;0.60;0.60;;;11.70;99.90;;;;;;5158035;27;20045;-69
2024/01/24 02:59:59;;;;;;;0.70;0.70;;;11.70;99.90;;;;;;5158023;27;20050;-68
2024/01/24 03:02:26;;;;;;;0.65;0.65;;;11.60;99.90;;;;;;5157894;27;20042;-68
2024/01/24 03:04:52;;;;;;;;;;;11.60;99.90;;;;;;5158390;27;20066;-68
2024/01/24 03:07:17;;;;;;;0.70;0.70;;;11.60;99.90;;;;;;5157788;27;19987;-68
2024/01/24 03:09:43;;;;;;;0.70;0.70;;;11.50;99.90;;;;;;5158076;27;20095;-68
2024/01/24 03:12:08;;;;;;;0.70;0.70;;;11.50;99.90;;;;;;5158231;27;20041;-69
2024/01/24 03:14:34;;;;;;;0.70;0.70;;;11.50;99.90;;;;;;5157759;27;20035;-68
2024/01/24 03:17:00;;;;;;;0.70;0.70;;;11.40;99.90;;;;;;5157676;27;20057;-68
2024/01/24 03:19:26;;;;;;;0.70;0.70;;;11.40;99.90;;;;;;5157659;27;20051;-67
2024/01/24 03:21:52;;;;;;;0.70;0.70;;;11.40;99.90;;;;;;5157455;27;20042;-68
2024/01/24 03:24:18;;;;;;;0.70;0.70;;;11.50;99.90;;;;;;5157270;27;20061;-68
2024/01/24 03:26:43;;;;;;;0.75;0.75;;;11.50;99.90;;;;;;5157472;27;20042;-68
2024/01/24 03:29:09;;;;;;;0.93;0.90;;;11.30;99.90;;;;;;5157554;27;20390;-69
2024/01/24 03:31:34;;;;;;;2.03;1.83;;;11.30;99.90;;;;;;5157349;27;20039;-68
2024/01/24 03:34:00;;;;;;;3.28;2.22;;;11.20;99.90;;;;;;5157294;27;20050;-68
2024/01/24 03:36:26;;;;;;;0.80;0.80;;;11.20;99.90;;;;;;5157260;27;20039;-68
2024/01/24 03:38:51;;;;;;;0.70;0.70;;;11.20;99.90;;;;;;5157153;27;20047;-68
2024/01/24 03:41:17;;;;;;;0.80;0.80;;;11.20;99.90;;;;;;5157082;27;20038;-68
2024/01/24 03:43:42;;;;;;;0.80;0.80;;;11.20;99.90;;;;;;5157092;27;20074;-68
2024/01/24 03:46:08;;;;;;;1.05;1.00;;;12.00;99.90;;;;;;5157064;27;20042;-68
2024/01/24 03:48:34;;;;;;;0.90;0.90;;;11.20;99.90;;;;;;5157158;27;20095;-68
2024/01/24 03:51:00;;;;;;;0.80;0.80;;;11.10;99.90;;;;;;5156887;27;20443;-68
2024/01/24 03:53:25;;;;;;;0.90;0.90;;;11.10;99.90;;;;;;5156848;27;20034;-69
2024/01/24 03:55:51;;;;;;;0.90;0.90;;;11.10;99.90;;;;;;5157398;27;20430;-68
2024/01/24 03:58:17;;;;;;;5.05;1.27;;;11.10;99.90;;;;;;5156235;27;20091;-68
2024/01/24 04:00:42;;;;;;;0.80;0.80;;;11.10;99.90;;;;;;5157081;27;20165;-68
2024/01/24 04:03:08;;;;;;;0.80;0.80;;;11.40;99.90;;;;;;5157099;27;20351;-68
2024/01/24 04:05:33;;;;;;;0.77;0.77;;;11.10;99.90;;;;;;5156820;27;20050;-68
2024/01/24 04:07:59;;;;;;;0.80;0.80;;;11.10;99.90;;;;;;5156703;27;20470;-68
2024/01/24 04:10:25;;;;;;;0.80;0.80;;;11.10;99.90;;;;;;5156623;27;20424;-68
2024/01/24 04:12:51;;;;;;;0.80;0.80;;;11.10;99.90;;;;;;5156595;27;20047;-68
2024/01/24 04:15:16;;;;;;;0.80;0.80;;;11.10;99.90;;;;;;5156511;27;20047;-68
2024/01/24 04:17:42;;;;;;;1.75;1.65;;;11.10;99.90;;;;;;5156655;27;20042;-68
2024/01/24 04:20:08;;;;;;;0.90;0.90;;;11.10;99.90;;;;;;5156524;27;20576;-68
2024/01/24 04:22:34;;;;;;;0.80;0.80;;;11.10;99.90;;;;;;5156221;27;20066;-68
2024/01/24 04:25:00;;;;;;;0.90;0.90;;;11.20;99.90;;;;;;5155929;27;20055;-68
2024/01/24 04:27:27;;;;;;;0.70;0.70;;;11.00;99.90;;;;;;5156401;27;20291;-68
2024/01/24 04:29:53;;;;;;;0.90;0.90;;;11.20;99.90;;;;;;5156266;27;20049;-69
2024/01/24 04:32:18;;;;;;;1.65;1.55;;;11.20;99.90;;;;;;5156191;27;20121;-68
2024/01/24 04:34:44;;;;;;;0.70;0.70;;;11.30;99.90;;;;;;5156180;27;20042;-68
2024/01/24 04:37:10;;;;;;;0.93;0.93;;;11.20;99.90;;;;;;5156011;27;20038;-68
2024/01/24 04:39:35;;;;;;;0.70;0.70;;;11.20;99.90;;;;;;5156245;27;20126;-68
2024/01/24 04:42:01;;;;;;;0.70;0.70;;;11.20;99.90;;;;;;5155603;27;20492;-69
2024/01/24 04:44:27;;;;;;;0.80;0.80;;;11.20;99.90;;;;;;5156219;27;20046;-68
2024/01/24 04:46:53;;;;;;;0.82;0.82;;;11.20;99.90;;;;;;5155912;27;20390;-68
2024/01/24 04:49:18;;;;;;;0.65;0.65;;;11.30;99.90;;;;;;5155996;27;20046;-68
2024/01/24 04:51:44;;;;;;;0.77;0.77;;;11.30;99.90;;;;;;5155805;27;20435;-68
2024/01/24 04:54:10;;;;;;;0.70;0.70;;;11.20;99.90;;;;;;5137240;27;20490;-68
2024/01/24 04:56:37;;;;;;;0.70;0.70;;;11.30;99.90;;;;;;5155540;27;20042;-68
2024/01/24 04:59:02;;;;;;;;;;;11.30;99.90;;;;;;5156159;27;20121;-68
2024/01/24 05:01:28;;;;;;;1.05;1.00;;;11.30;99.90;;;;;;5155482;27;20378;-69
2024/01/24 05:03:54;;;;;;;3.90;2.75;;;11.30;99.90;;;;;;5155660;27;20034;-68
2024/01/24 05:06:20;;;;;;;1.25;1.15;;;11.30;99.90;;;;;;5155535;27;20053;-68
2024/01/24 05:08:46;;;;;;;1.80;1.08;;;11.60;99.90;;;;;;5154531;27;20043;-68
2024/01/24 05:11:11;;;;;;;0.80;0.80;;;11.30;99.90;;;;;;5156003;27;20107;-68
2024/01/24 05:13:37;;;;;;;0.70;0.70;;;11.40;99.90;;;;;;5155479;27;20038;-68
2024/01/24 05:16:03;;;;;;;0.70;0.70;;;11.30;99.90;;;;;;5155529;27;20051;-68
2024/01/24 05:18:28;;;;;;;9.55;2.85;;;11.30;99.90;;;;;;5155627;27;20098;-68
2024/01/24 05:20:54;;;;;;;0.70;0.70;;;11.30;99.90;;;;;;5155213;27;20116;-68
2024/01/24 05:23:20;;;;;;;0.80;0.80;;;11.30;99.90;;;;;;5155331;27;20050;-68
2024/01/24 05:25:46;;;;;;;0.70;0.70;;;11.20;99.90;;;;;;5155412;27;20050;-69
2024/01/24 05:28:12;;;;;;;0.80;0.80;;;11.20;99.90;;;;;;5155387;27;20034;-68
2024/01/24 05:30:37;;;;;;;0.70;0.70;;;11.20;99.90;;;;;;5155308;27;20394;-68
2024/01/24 05:33:03;;;;;;;0.70;0.70;;;11.20;99.90;;;;;;5155322;27;20035;-68
2024/01/24 05:35:29;;;;;;;0.70;0.70;;;11.10;99.90;;;;;;5155203;27;20143;-67
2024/01/24 05:37:54;;;;;;;0.80;0.80;;;11.10;99.90;;;;;;5154973;27;20035;-68
2024/01/24 05:40:20;;;;;;;1.40;1.30;;;11.10;99.90;;;;;;5155119;27;20039;-68
2024/01/24 05:42:46;;;;;;;1.05;0.95;;;11.00;99.90;;;;;;5155053;27;20070;-68
2024/01/24 05:45:12;;;;;;;1.70;1.60;;;10.90;99.90;;;;;;5155075;27;20471;-68
2024/01/24 05:47:38;;;;;;;0.80;0.80;;;10.90;99.90;;;;;;5155153;27;20046;-69
2024/01/24 05:50:04;;;;;;;0.70;0.70;;;10.90;99.90;;;;;;5136710;27;20051;-68
2024/01/24 05:52:30;;;;;;;0.80;0.80;;;10.80;99.90;;;;;;5155220;27;20393;-68
2024/01/24 05:54:55;;;;;;;0.63;0.63;;;10.80;99.90;;;;;;5155248;27;20125;-68
2024/01/24 05:57:24;;;;;;;0.70;0.70;;;10.70;99.90;;;;;;5155143;27;20111;-68
2024/01/24 05:59:50;;;;;;;0.70;0.70;;;10.70;99.90;;;;;;5136961;27;20402;-68
2024/01/24 06:02:15;;;;;;;0.70;0.70;;;10.60;99.90;;;;;;5136514;27;20039;-68
2024/01/24 06:04:41;;;;;;;0.70;0.70;;;10.60;99.90;;;;;;5155010;27;20046;-68
2024/01/24 06:07:07;;;;;;;0.90;0.90;;;10.60;99.90;;;;;;5154943;27;20042;-68
2024/01/24 06:09:33;;;;;;;0.70;0.70;;;10.60;99.90;;;;;;5155296;27;20066;-69
2024/01/24 06:11:59;;;;;;;0.70;0.70;;;10.60;99.90;;;;;;5154881;27;20046;-68
2024/01/24 06:14:24;;;;;;;1.43;1.33;;;10.60;99.90;;;;;;5155118;27;20431;-68
2024/01/24 06:16:50;;;;;;;3.25;1.52;;;10.60;99.90;;;;;;5154896;27;20051;-68
2024/01/24 06:19:15;;;;;;;0.77;0.77;;;10.50;99.90;;;;;;5136595;27;20053;-68
2024/01/24 06:21:41;;;;;;;0.80;0.80;;;10.50;99.90;;;;;;5158337;27;20387;-69
2024/01/24 06:24:07;;;;;;;1.10;1.00;;;10.50;99.90;;;;;;5158500;27;20150;-68
2024/01/24 06:26:33;;;;;;;4.95;0.80;;;10.50;99.90;;;;;;5159174;27;20500;-67
2024/01/24 06:28:58;;;;;;;1.35;1.25;;;10.40;99.90;;;;;;5159004;27;20688;-69
2024/01/24 06:31:24;;;;;;;0.80;0.80;;;10.40;99.90;;;;;;5158899;27;20057;-68
2024/01/24 06:33:50;;;;;;;0.75;0.75;;;10.40;99.90;;;;;;5158600;27;20047;-68
2024/01/24 06:36:16;;;;;;;0.90;0.90;;;11.00;99.90;;;;;;5158535;27;20482;-67
2024/01/24 06:38:42;;;;;;;0.88;0.88;;;10.80;99.90;;;;;;5158397;27;20042;-68
2024/01/24 06:41:07;;;;;;;0.90;0.90;;;10.40;99.90;;;;;;5158679;27;20069;-68
2024/01/24 06:43:35;;;;;;;1.45;1.35;;;10.40;99.90;;;;;;5158176;27;20121;-68
2024/01/24 06:46:02;;;;;;;0.73;0.73;;;10.60;99.90;;;;;;5140019;27;20390;-68
2024/01/24 06:48:28;;;;;;;1.27;1.17;;;10.40;99.90;;;;;;5158167;27;20035;-69
2024/01/24 06:50:54;;;;;;;0.80;0.80;;;10.40;99.90;;;;;;5158080;27;20053;-68
2024/01/24 06:53:20;;;;;;;0.80;0.80;;;10.40;99.90;;;;;;5158465;27;20046;-68
2024/01/24 06:55:46;;;;;;;0.90;0.90;;;10.40;99.90;;;;;;5158101;27;20046;-68
2024/01/24 06:58:11;;;;;;;0.75;0.75;;;10.40;99.90;;;;;;5158164;27;20047;-68
2024/01/24 07:00:37;;;;;;;0.90;0.90;;;10.40;99.90;;;;;;5157876;27;20386;-68
2024/01/24 07:03:03;;;;;;;1.30;1.20;;;10.70;99.90;;;;;;5157913;27;20039;-68
2024/01/24 07:05:29;;;;;;;1.10;1.10;;;10.30;99.90;;;;;;5157892;27;20050;-68
2024/01/24 07:07:56;;;;;;;0.80;0.80;;;10.30;99.90;;;;;;5157783;27;20046;-69
2024/01/24 07:10:22;;;;;;;0.80;0.80;;;10.40;99.90;;;;;;5157773;27;20050;-69
2024/01/24 07:12:47;;;;;;;0.95;0.95;;;10.60;99.90;;;;;;5158324;27;20046;-69
2024/01/24 07:15:17;;;;;;;2.47;1.45;;;10.50;99.90;;;;;;5157716;27;20046;-69
2024/01/24 07:17:43;;;;;;;0.80;0.80;;;10.40;99.90;;;;;;5157802;27;20150;-69
2024/01/24 07:20:10;;;;;;;0.90;0.90;;;10.30;99.90;;;;;;5157508;27;20039;-73
2024/01/24 07:22:35;;;;;;;5.18;1.60;;;10.30;99.90;;;;;;5157448;27;20099;-69
2024/01/24 07:25:04;;;;;;;0.80;0.80;;;10.30;99.90;;;;;;5156300;27;20440;-69
2024/01/24 07:27:30;;;;;;;1.15;1.13;;;10.40;99.90;;;;;;5156271;27;20162;-69
2024/01/24 07:29:55;;;;;;;5.20;1.20;;;10.40;99.90;;;;;;5155758;27;20043;-72
2024/01/24 07:32:21;;;;;;;0.90;0.90;;;10.40;99.90;;;;;;5154859;27;20111;-68
2024/01/24 07:34:47;;;;;;;0.80;0.80;;;10.40;99.90;;;;;;5156720;27;20434;-69
2024/01/24 07:37:13;;;;;;;1.27;1.17;;;10.40;99.90;;;;;;5157206;27;20466;-70
2024/01/24 07:39:39;;;;;;;0.70;0.70;;;10.40;99.90;;;;;;5157370;27;20501;-69
2024/01/24 07:42:05;;;;;;;0.80;0.80;;;10.40;99.90;;;;;;5157101;27;20102;-69
2024/01/24 07:44:30;;;;;;;2.45;2.25;;;10.40;99.90;;;;;;5138866;27;20054;-69
2024/01/24 07:46:56;;;;;;;1.38;1.27;;;10.20;99.90;;;;;;5157017;27;20047;-69
2024/01/24 07:49:23;;;;;;;0.90;0.90;;;10.40;99.90;;;;;;5157068;27;20047;-69
2024/01/24 07:51:48;;;;;;;0.80;0.80;;;10.40;99.90;;;;;;5156403;27;20070;-69
2024/01/24 07:54:14;;;;;;;0.90;0.90;;;10.60;99.90;;;;;;5156926;27;20043;-69
2024/01/24 07:56:39;;;;;;;1.65;1.55;;;10.50;99.90;;;;;;5156865;27;20039;-69
2024/01/24 07:59:06;;;;;;;2.92;2.35;;;10.50;99.90;;;;;;5156902;27;20516;-69
2024/01/24 08:01:32;;;;;;;0.70;0.70;;;10.50;99.90;;;;;;5156360;27;20542;-69
2024/01/24 08:03:58;;;;;;;1.13;1.05;;;10.50;99.90;;;;;;5156787;27;20054;-69
2024/01/24 08:06:24;;;;;;;0.80;0.80;;;10.40;99.90;;;;;;5156692;27;20050;-68
2024/01/24 08:08:50;;;;;;;0.90;0.90;;;10.40;99.90;;;;;;5157226;27;20362;-69
2024/01/24 08:11:16;;;;;;;1.20;1.13;;;10.50;99.90;;;;;;5156644;27;20042;-70
2024/01/24 08:13:42;;;;;;;0.80;0.80;;;10.40;99.90;;;;;;5156578;27;20045;-69
2024/01/24 08:16:08;;;;;;;3.28;2.15;;;10.40;99.90;;;;;;5156745;27;20038;-69
2024/01/24 08:18:33;;;;;;;0.80;0.80;;;11.20;99.90;;;;;;5156501;27;20118;-69
2024/01/24 08:20:59;;;;;;;0.80;0.80;;;10.30;99.90;;;;;;5156376;27;20060;-69
2024/01/24 08:23:25;;;;;;;0.90;0.90;;;10.90;99.90;;;;;;5156370;27;20045;-69
2024/01/24 08:25:50;;;;;;;3.80;3.60;;;10.80;99.90;;;;;;5156718;27;20098;-69
2024/01/24 08:28:16;;;;;;;0.80;0.80;;;10.30;99.90;;;;;;5156302;27;20125;-69
2024/01/24 08:30:42;;;;;;;0.80;0.80;;;10.30;99.90;;;;;;5156231;27;20117;-69
2024/01/24 08:33:08;;;;;;;1.50;1.40;;;10.20;99.90;;;;;;5156270;27;20042;-69
2024/01/24 08:35:35;;;;;;;0.80;0.80;;;10.30;99.90;;;;;;5156145;27;20272;-70
2024/01/24 08:38:02;;;;;;;0.80;0.80;;;10.20;99.90;;;;;;5156695;27;20171;-69
2024/01/24 08:40:27;;;;;;;0.80;0.80;;;10.20;99.90;;;;;;5156103;27;20038;-69
2024/01/24 08:42:54;;;;;;;0.80;0.80;;;10.20;99.90;;;;;;5155798;27;20367;-71
2024/01/24 08:45:20;;;;;;;0.80;0.80;;;10.10;99.90;;;;;;5156079;27;20462;-73
2024/01/24 08:47:46;;;;;;;0.80;0.80;;;10.20;99.90;;;;;;5155829;27;20474;-72
2024/01/24 08:50:11;;;;;;;0.80;0.80;;;10.10;99.90;;;;;;5155745;27;20046;-71
2024/01/24 08:52:38;;;;;;;0.90;0.90;;;11.00;99.90;;;;;;5155839;27;20121;-69
2024/01/24 08:55:06;;;;;;;0.80;0.80;;;11.00;99.90;;;;;;5155262;27;20047;-69
2024/01/24 08:57:31;;;;;;;0.70;0.70;;;10.20;99.90;;;;;;5155765;27;20043;-69
2024/01/24 08:59:57;;;;;;;0.70;0.70;;;10.20;99.90;;;;;;5155751;27;20053;-69
2024/01/24 09:02:22;;;;;;;1.00;1.00;;;10.20;99.90;;;;;;5155716;27;20117;-68
2024/01/24 09:04:51;;;;;;;0.90;0.90;;;10.20;99.90;;;;;;5155650;27;20043;-68
2024/01/24 09:07:19;;;;;;;0.70;0.70;;;10.20;99.90;;;;;;5155616;27;20379;-69
2024/01/24 09:09:47;;;;;;;0.98;0.88;;;10.30;99.90;;;;;;5155787;27;20054;-73
2024/01/24 09:12:14;;;;;;;1.05;0.95;;;10.20;99.90;;;;;;5155428;27;20051;-69
2024/01/24 09:14:39;;;;;;;0.70;0.70;;;10.30;99.90;;;;;;5155149;27;20050;-69
2024/01/24 09:17:07;;;;;;;0.90;0.90;;;10.50;99.90;;;;;;5154764;27;20031;-70
2024/01/24 09:19:33;;;;;;;;;;;10.30;99.90;;;;;;5155141;27;20302;-68
2024/01/24 09:22:00;;;;;;;1.35;1.15;;;10.90;99.90;;;;;;5154738;27;20010;-68
2024/01/24 09:24:26;;;;;;;3.58;1.33;;;11.40;99.90;;;;;;5155393;27;20035;-68
2024/01/24 09:26:51;;;;;;;0.80;0.80;;;10.30;99.90;;;;;;5155230;27;20049;-69
2024/01/24 09:29:18;;;;;;;0.80;0.80;;;10.30;99.90;;;;;;5155414;27;20474;-68
2024/01/24 09:31:45;;;;;;;0.90;0.90;;;10.80;99.90;;;;;;5155054;27;20071;-70
2024/01/24 09:34:14;;;;;;;0.80;0.80;;;10.20;99.90;;;;;;5155268;27;20039;-72
2024/01/24 09:36:40;;;;;;;0.70;0.70;;;10.20;99.90;;;;;;5154767;27;20051;-70
2024/01/24 09:39:09;;;;;;;0.77;0.77;;;10.20;99.90;;;;;;5154955;27;20050;-68
2024/01/24 09:41:43;;;;;;;2.10;1.90;;;10.30;99.90;;;;;;5155176;27;20046;-68
2024/01/24 09:44:11;;;;;;;0.70;0.70;;;10.20;99.90;;;;;;5136743;27;20478;-68
2024/01/24 09:46:37;;;;;;;0.70;0.70;;;10.20;99.90;;;;;;5155696;27;20042;-69
2024/01/24 09:49:07;;;;;;;1.95;1.30;;;10.20;99.90;;;;;;5155102;27;20047;-68
2024/01/24 09:51:33;;;;;;;0.70;0.70;;;10.20;99.90;;;;;;5154875;27;20051;-69
2024/01/24 09:54:08;;;;;;;0.95;0.95;;;10.20;99.90;;;;;;5155002;27;20094;-69
2024/01/24 09:56:36;;;;;;;2.33;2.15;;;10.20;99.90;;;;;;5158260;27;20398;-70
2024/01/24 09:59:07;;;;;;;2.05;0.80;;;10.60;99.90;;;;;;5159116;27;20179;-71
2024/01/24 10:01:38;;;;;;;0.70;0.70;;;11.00;99.90;;;;;;5159189;27;20118;-69
2024/01/24 10:04:05;;;;;;;0.73;0.70;;;10.20;99.90;;;;;;5158993;27;20050;-68
2024/01/24 10:06:31;;;;;;;1.13;1.02;;;10.20;99.90;;;;;;5159116;27;20121;-69
2024/01/24 10:08:58;;;;;;;0.70;0.70;;;10.30;99.90;;;;;;5159127;27;20057;-71
2024/01/24 10:11:27;;;;;;;1.67;1.57;;;10.20;99.90;;;;;;5158973;27;20046;-71
2024/01/24 10:13:58;;;;;;;0.70;0.70;;;10.20;99.90;;;;;;5158950;27;20046;-69
2024/01/24 10:16:25;;;;;;;0.70;0.70;;;10.30;99.90;;;;;;5159324;27;20042;-69
2024/01/24 10:18:55;;;;;;;1.02;1.00;;;10.30;99.90;;;;;;5159146;27;20039;-70
2024/01/24 10:21:20;;;;;;;2.50;1.13;;;10.50;99.90;;;;;;5158756;27;20087;-69
2024/01/24 10:23:46;;;;;;;0.88;0.88;;;10.30;99.90;;;;;;5158683;27;20047;-71
2024/01/24 10:26:11;;;;;;;0.70;0.70;;;10.10;99.90;;;;;;5158451;27;20046;-71
2024/01/24 10:28:37;;;;;;;0.85;0.85;;;10.30;99.90;;;;;;5158507;27;20049;-68
2024/01/24 10:31:03;;;;;;;0.80;0.80;;;10.70;99.90;;;;;;5158567;27;20078;-69
2024/01/24 10:33:29;;;;;;;35.35;2.13;;;10.30;99.90;;;;;;5161610;27;20485;-67
2024/01/24 10:36:00;;;;;;;0.70;0.70;;;11.00;99.90;;;;;;5158939;27;20039;-67
2024/01/24 10:38:31;;;;;;;0.77;0.77;;;10.30;99.90;;;;;;5159120;27;20042;-69
2024/01/24 10:41:00;;;;;;;0.70;0.70;;;10.30;99.90;;;;;;5146201;27;20039;-70
2024/01/24 10:43:27;;;;;;;0.70;0.70;;;10.30;99.90;;;;;;5149083;27;20039;-69
2024/01/24 10:45:54;;;;;;;2.08;1.95;;;10.30;99.90;;;;;;5158886;27;20142;-69
2024/01/24 10:48:20;;;;;;;0.70;0.70;;;11.10;99.90;;;;;;5158260;27;20234;-68
2024/01/24 10:50:46;;;;;;;0.70;0.70;;;10.30;99.90;;;;;;5157921;27;20086;-68
2024/01/24 10:53:13;;;;;;;0.70;0.70;;;10.40;99.90;;;;;;5158278;27;20053;-67
2024/01/24 10:55:40;;;;;;;1.10;1.00;;;10.40;99.90;;;;;;5158155;27;20045;-72
2024/01/24 10:58:06;;;;;;;;;;;10.40;99.90;;;;;;5158533;27;20051;-70
2024/01/24 11:00:33;;;;;;;7.57;1.50;;;10.50;99.90;;;;;;5155123;27;19929;-72
2024/01/24 11:02:58;;;;;;;;;;;10.50;99.90;;;;;;5157993;27;20074;-71
2024/01/24 11:05:33;;;;;;;0.70;0.70;;;10.60;99.90;;;;;;5164381;27;19919;-67
2024/01/24 11:08:20;;;;;;;0.70;0.70;;;10.60;99.90;;;;;;5175741;27;20089;-69
2024/01/24 11:10:47;;;;;;;0.67;0.67;;;10.60;99.90;;;;;;5177145;27;20177;-67
2024/01/24 11:13:13;;;;;;;0.95;0.95;;;10.60;99.90;;;;;;5178336;27;20283;-67
2024/01/24 11:15:40;;;;;;;0.60;0.60;;;10.80;99.90;;;;;;5177490;27;20042;-69
2024/01/24 11:18:25;;;;;;;1.70;1.60;;;10.90;99.90;;;;;;5178027;27;20042;-67
2024/01/24 11:21:00;;;;;;;0.70;0.70;;;10.70;99.90;;;;;;5177987;27;20038;-67
2024/01/24 11:23:35;;;;;;;0.60;0.60;;;10.70;99.90;;;;;;5178393;27;20045;-68
2024/01/24 11:26:01;;;;;;;3.22;1.10;;;10.80;99.90;;;;;;5178095;27;20485;-67
2024/01/24 11:28:27;;;;;;;0.70;0.70;;;10.70;99.90;;;;;;5178434;27;20049;-67
2024/01/24 11:30:53;;;;;;;0.90;0.90;;;10.80;99.90;;;;;;5178362;27;20038;-69
2024/01/24 11:33:19;;;;;;;0.90;0.90;;;10.70;99.90;;;;;;5178267;27;20038;-67
2024/01/24 11:35:50;;;;;;;0.70;0.70;;;10.70;99.90;;;;;;5178244;27;20046;-67
2024/01/24 11:38:28;;;;;;;0.80;0.80;;;11.10;99.90;;;;;;5178196;27;20121;-67
2024/01/24 11:41:20;;;;;;;0.80;0.80;;;10.70;99.90;;;;;;5178436;27;20050;-67
2024/01/24 11:43:48;;;;;;;0.80;0.80;;;11.60;99.90;;;;;;5177955;27;20094;-67
2024/01/24 11:46:14;;;;;;;0.95;0.95;;;10.80;99.90;;;;;;5178019;27;20050;-69
2024/01/24 11:48:40;;;;;;;6.30;0.83;;;11.10;99.90;;;;;;5177838;27;20085;-69
2024/01/24 11:51:06;;;;;;;1.40;1.30;;;10.70;99.90;;;;;;5177652;27;20469;-72
2024/01/24 11:53:32;;;;;;;1.35;1.25;;;11.00;99.90;;;;;;5177952;27;20042;-73
2024/01/24 11:56:00;;;;;;;0.80;0.80;;;10.90;99.90;;;;;;5177873;27;20052;-68
2024/01/24 11:58:26;;;;;;;0.73;0.73;;;11.50;99.90;;;;;;5181614;27;20066;-69
2024/01/24 12:00:58;;;;;;;0.80;0.80;;;10.70;99.90;;;;;;5182879;27;20042;-71
2024/01/24 12:03:23;;;;;;;0.70;0.70;;;10.60;99.90;;;;;;5177723;27;20541;-68
2024/01/24 12:05:49;;;;;;;4.80;1.35;;;11.10;99.90;;;;;;5177550;27;20046;-67
2024/01/24 12:08:15;;;;;;;0.70;0.70;;;11.40;99.90;;;;;;5177526;27;20497;-71
2024/01/24 12:10:41;;;;;;;4.25;3.85;;;10.60;99.90;;;;;;5177489;27;20034;-70
2024/01/24 12:13:07;;;;;;;1.00;1.00;;;10.50;99.90;;;;;;5177444;27;20069;-69
2024/01/24 12:15:34;;;;;;;0.77;0.77;;;11.10;99.90;;;;;;5177469;27;20099;-67
2024/01/24 12:18:05;;;;;;;3.15;1.25;;;10.50;99.90;;;;;;5176714;27;20039;-69
2024/01/24 12:20:31;;;;;;;0.70;0.70;;;10.50;99.90;;;;;;5159391;27;20046;-67
2024/01/24 12:22:57;;;;;;;0.70;0.70;;;10.50;99.90;;;;;;5177217;27;20039;-67
2024/01/24 12:25:22;;;;;;;0.70;0.70;;;10.50;99.90;;;;;;5176910;27;20086;-70
2024/01/24 12:27:50;;;;;;;0.90;0.90;;;10.50;99.90;;;;;;5177091;27;20074;-69
2024/01/24 12:30:16;;;;;;;4.05;0.95;;;10.50;99.90;;;;;;5177509;27;20053;-68
2024/01/24 12:32:41;;;;;;;0.70;0.70;;;10.50;99.90;;;;;;5177074;27;20477;-69
2024/01/24 12:35:07;;;;;;;0.70;0.70;;;10.50;99.90;;;;;;5177073;27;20050;-67
2024/01/24 12:37:36;;;;;;;1.55;1.45;;;10.50;99.90;;;;;;5177135;27;20034;-69
2024/01/24 12:40:07;;;;;;;0.60;0.60;;;10.50;99.90;;;;;;5176940;27;20128;-75
2024/01/24 12:42:33;;;;;;;1.65;1.58;;;10.50;99.90;;;;;;5177080;27;20129;-68
2024/01/24 12:44:59;;;;;;;0.70;0.70;;;10.60;99.90;;;;;;5176830;27;20136;-69